sensor_id;sensor_type;location;lat;lon;timestamp;pressure;altitude;pressure_sealevel;temperature;humidity
65832;BME280;52593;42.648;23.332;2023-08-24T00:00:29;94684.06;;;21.43;70.51
65832;BME280;52593;42.648;23.332;2023-08-24T00:02:57;94685.94;;;21.25;71.34
65832;BME280;52593;42.648;23.332;2023-08-24T00:05:23;94696.50;;;21.05;71.17
65832;BME280;52593;42.648;23.332;2023-08-24T00:07:48;94694.16;;;20.96;71.29
65832;BME280;52593;42.648;23.332;2023-08-24T00:10:14;94683.53;;;20.95;71.95
65832;BME280;52593;42.648;23.332;2023-08-24T00:12:40;94684.03;;;20.92;72.08
65832;BME280;52593;42.648;23.332;2023-08-24T00:15:08;94687.59;;;20.92;71.69
65832;BME280;52593;42.648;23.332;2023-08-24T00:17:34;94682.63;;;20.89;71.88
65832;BME280;52593;42.648;23.332;2023-08-24T00:19:59;94682.63;;;20.89;72.72
65832;BME280;52593;42.648;23.332;2023-08-24T00:22:26;94683.69;;;20.88;72.86
65832;BME280;52593;42.648;23.332;2023-08-24T00:24:51;94678.06;;;20.78;73.39
65832;BME280;52593;42.648;23.332;2023-08-24T00:27:16;94674.69;;;20.71;73.64
65832;BME280;52593;42.648;23.332;2023-08-24T00:29:42;94679.31;;;20.87;73.09
65832;BME280;52593;42.648;23.332;2023-08-24T00:32:07;94673.47;;;20.78;73.76
65832;BME280;52593;42.648;23.332;2023-08-24T00:34:33;94673.97;;;20.75;74.00
65832;BME280;52593;42.648;23.332;2023-08-24T00:36:59;94659.94;;;20.66;74.02
65832;BME280;52593;42.648;23.332;2023-08-24T00:39:24;94670.81;;;20.55;74.41
65832;BME280;52593;42.648;23.332;2023-08-24T00:41:49;94666.88;;;20.34;75.31
65832;BME280;52593;42.648;23.332;2023-08-24T00:44:15;94665.13;;;20.27;75.21
65832;BME280;52593;42.648;23.332;2023-08-24T00:46:40;94667.94;;;20.33;75.07
65832;BME280;52593;42.648;23.332;2023-08-24T00:49:06;94679.09;;;20.60;74.43
65832;BME280;52593;42.648;23.332;2023-08-24T00:51:32;94687.25;;;20.60;74.40
65832;BME280;52593;42.648;23.332;2023-08-24T00:53:57;94683.50;;;20.49;72.70
65832;BME280;52593;42.648;23.332;2023-08-24T00:56:24;94688.41;;;20.23;74.20
65832;BME280;52593;42.648;23.332;2023-08-24T00:58:50;94683.00;;;20.11;75.13
65832;BME280;52593;42.648;23.332;2023-08-24T01:01:18;94685.94;;;20.22;75.02
65832;BME280;52593;42.648;23.332;2023-08-24T01:03:44;94690.47;;;20.45;74.31
65832;BME280;52593;42.648;23.332;2023-08-24T01:06:09;94679.41;;;20.35;74.52
65832;BME280;52593;42.648;23.332;2023-08-24T01:08:35;94680.19;;;20.06;75.72
65832;BME280;52593;42.648;23.332;2023-08-24T01:13:55;94678.03;;;20.20;75.88
65832;BME280;52593;42.648;23.332;2023-08-24T01:16:27;94677.66;;;20.17;76.31
65832;BME280;52593;42.648;23.332;2023-08-24T01:18:55;94686.75;;;20.22;76.02
65832;BME280;52593;42.648;23.332;2023-08-24T01:21:22;94681.22;;;20.17;76.38
65832;BME280;52593;42.648;23.332;2023-08-24T01:24:10;94676.28;;;20.14;76.52
65832;BME280;52593;42.648;23.332;2023-08-24T01:26:37;94676.06;;;20.04;77.14
65832;BME280;52593;42.648;23.332;2023-08-24T01:29:04;94680.53;;;20.10;76.73
65832;BME280;52593;42.648;23.332;2023-08-24T01:31:30;94674.16;;;20.04;77.03
65832;BME280;52593;42.648;23.332;2023-08-24T01:33:55;94679.72;;;19.98;77.48
65832;BME280;52593;42.648;23.332;2023-08-24T01:36:21;94680.16;;;20.18;76.54
65832;BME280;52593;42.648;23.332;2023-08-24T01:38:58;94686.13;;;20.32;75.90
65832;BME280;52593;42.648;23.332;2023-08-24T01:41:34;94685.88;;;20.34;75.92
65832;BME280;52593;42.648;23.332;2023-08-24T01:44:03;94688.69;;;20.10;77.03
65832;BME280;52593;42.648;23.332;2023-08-24T01:46:29;94690.38;;;19.87;78.20
65832;BME280;52593;42.648;23.332;2023-08-24T01:48:56;94695.09;;;19.68;79.10
65832;BME280;52593;42.648;23.332;2023-08-24T01:51:23;94692.47;;;19.73;79.17
65832;BME280;52593;42.648;23.332;2023-08-24T01:53:50;94692.88;;;19.77;79.21
65832;BME280;52593;42.648;23.332;2023-08-24T01:56:16;94687.22;;;19.78;79.20
65832;BME280;52593;42.648;23.332;2023-08-24T01:58:42;94676.31;;;19.67;79.07
65832;BME280;52593;42.648;23.332;2023-08-24T02:01:08;94679.84;;;19.67;79.00
65832;BME280;52593;42.648;23.332;2023-08-24T02:03:34;94679.63;;;19.69;78.27
65832;BME280;52593;42.648;23.332;2023-08-24T02:05:59;94684.94;;;19.99;77.23
65832;BME280;52593;42.648;23.332;2023-08-24T02:08:25;94672.97;;;20.12;75.69
65832;BME280;52593;42.648;23.332;2023-08-24T02:10:50;94689.06;;;20.02;76.05
65832;BME280;52593;42.648;23.332;2023-08-24T02:13:15;94688.59;;;19.93;77.39
65832;BME280;52593;42.648;23.332;2023-08-24T02:15:41;94692.97;;;19.94;77.57
65832;BME280;52593;42.648;23.332;2023-08-24T02:18:07;94694.97;;;19.87;77.82
65832;BME280;52593;42.648;23.332;2023-08-24T02:20:38;94693.56;;;19.60;79.18
65832;BME280;52593;42.648;23.332;2023-08-24T02:25:48;94697.91;;;19.38;80.60
65832;BME280;52593;42.648;23.332;2023-08-24T02:28:14;94701.69;;;19.25;80.46
65832;BME280;52593;42.648;23.332;2023-08-24T02:30:39;94707.09;;;19.25;80.76
65832;BME280;52593;42.648;23.332;2023-08-24T02:33:05;94704.16;;;19.27;81.02
65832;BME280;52593;42.648;23.332;2023-08-24T02:35:30;94715.00;;;19.27;81.97
65832;BME280;52593;42.648;23.332;2023-08-24T02:37:56;94707.91;;;19.25;81.86
65832;BME280;52593;42.648;23.332;2023-08-24T02:40:22;94706.63;;;19.28;81.08
65832;BME280;52593;42.648;23.332;2023-08-24T02:42:48;94693.66;;;19.30;81.09
65832;BME280;52593;42.648;23.332;2023-08-24T02:45:13;94697.19;;;19.31;81.30
65832;BME280;52593;42.648;23.332;2023-08-24T02:47:38;94694.47;;;19.31;81.65
65832;BME280;52593;42.648;23.332;2023-08-24T02:50:05;94684.56;;;19.36;81.97
65832;BME280;52593;42.648;23.332;2023-08-24T02:52:31;94678.81;;;19.33;82.10
65832;BME280;52593;42.648;23.332;2023-08-24T02:54:57;94679.63;;;19.33;81.69
65832;BME280;52593;42.648;23.332;2023-08-24T02:57:23;94673.38;;;19.33;81.75
65832;BME280;52593;42.648;23.332;2023-08-24T02:59:49;94667.34;;;19.42;81.58
65832;BME280;52593;42.648;23.332;2023-08-24T03:02:14;94667.13;;;19.56;80.84
65832;BME280;52593;42.648;23.332;2023-08-24T03:04:39;94668.41;;;19.65;79.88
65832;BME280;52593;42.648;23.332;2023-08-24T03:07:05;94657.09;;;19.80;78.93
65832;BME280;52593;42.648;23.332;2023-08-24T03:09:36;94666.53;;;19.89;78.70
65832;BME280;52593;42.648;23.332;2023-08-24T03:12:02;94662.16;;;19.88;78.75
65832;BME280;52593;42.648;23.332;2023-08-24T03:14:28;94675.13;;;19.74;79.43
65832;BME280;52593;42.648;23.332;2023-08-24T03:16:53;94681.28;;;19.58;80.92
65832;BME280;52593;42.648;23.332;2023-08-24T03:19:18;94680.09;;;19.54;81.39
65832;BME280;52593;42.648;23.332;2023-08-24T03:21:44;94691.56;;;19.56;81.08
65832;BME280;52593;42.648;23.332;2023-08-24T03:24:09;94692.81;;;19.41;81.80
65832;BME280;52593;42.648;23.332;2023-08-24T03:26:36;94711.38;;;19.33;82.60
65832;BME280;52593;42.648;23.332;2023-08-24T03:29:01;94712.03;;;19.16;83.63
65832;BME280;52593;42.648;23.332;2023-08-24T03:31:26;94707.50;;;18.98;84.46
65832;BME280;52593;42.648;23.332;2023-08-24T03:33:52;94713.50;;;18.88;84.45
65832;BME280;52593;42.648;23.332;2023-08-24T03:36:17;94711.03;;;18.87;85.00
65832;BME280;52593;42.648;23.332;2023-08-24T03:38:44;94723.28;;;18.89;85.12
65832;BME280;52593;42.648;23.332;2023-08-24T03:41:10;94729.22;;;18.80;85.32
65832;BME280;52593;42.648;23.332;2023-08-24T03:43:35;94722.75;;;18.81;85.76
65832;BME280;52593;42.648;23.332;2023-08-24T03:46:02;94718.47;;;18.92;84.92
65832;BME280;52593;42.648;23.332;2023-08-24T03:48:29;94730.63;;;19.01;84.68
65832;BME280;52593;42.648;23.332;2023-08-24T03:50:55;94731.56;;;19.06;84.57
65832;BME280;52593;42.648;23.332;2023-08-24T03:53:22;94728.03;;;19.06;84.71
65832;BME280;52593;42.648;23.332;2023-08-24T03:55:48;94736.34;;;19.23;84.07
65832;BME280;52593;42.648;23.332;2023-08-24T03:58:14;94738.13;;;19.29;83.61
65832;BME280;52593;42.648;23.332;2023-08-24T04:00:39;94738.22;;;19.22;83.61
65832;BME280;52593;42.648;23.332;2023-08-24T04:03:07;94734.78;;;19.15;84.56
65832;BME280;52593;42.648;23.332;2023-08-24T04:05:32;94738.81;;;19.13;83.40
65832;BME280;52593;42.648;23.332;2023-08-24T04:08:00;94737.22;;;19.05;84.87
65832;BME280;52593;42.648;23.332;2023-08-24T04:10:26;94736.41;;;19.04;85.29
65832;BME280;52593;42.648;23.332;2023-08-24T04:12:52;94733.19;;;18.96;85.17
65832;BME280;52593;42.648;23.332;2023-08-24T04:15:18;94731.31;;;18.96;85.38
65832;BME280;52593;42.648;23.332;2023-08-24T04:17:43;94738.78;;;19.01;85.02
65832;BME280;52593;42.648;23.332;2023-08-24T04:20:09;94725.34;;;19.06;84.86
65832;BME280;52593;42.648;23.332;2023-08-24T04:22:35;94727.00;;;19.07;84.81
65832;BME280;52593;42.648;23.332;2023-08-24T04:25:00;94722.16;;;19.09;84.52
65832;BME280;52593;42.648;23.332;2023-08-24T04:27:26;94729.97;;;19.17;84.27
65832;BME280;52593;42.648;23.332;2023-08-24T04:29:51;94718.03;;;19.18;83.91
65832;BME280;52593;42.648;23.332;2023-08-24T04:32:17;94720.91;;;19.23;83.53
65832;BME280;52593;42.648;23.332;2023-08-24T04:34:43;94729.31;;;19.57;82.51
65832;BME280;52593;42.648;23.332;2023-08-24T04:37:08;94728.38;;;19.75;81.43
65832;BME280;52593;42.648;23.332;2023-08-24T04:39:34;94733.22;;;19.85;80.50
65832;BME280;52593;42.648;23.332;2023-08-24T04:41:59;94731.19;;;19.69;81.04
65832;BME280;52593;42.648;23.332;2023-08-24T04:44:25;94733.31;;;19.67;81.33
65832;BME280;52593;42.648;23.332;2023-08-24T04:46:50;94745.44;;;19.52;82.31
65832;BME280;52593;42.648;23.332;2023-08-24T04:49:15;94739.44;;;19.50;82.35
65832;BME280;52593;42.648;23.332;2023-08-24T04:51:41;94742.28;;;19.67;81.33
65832;BME280;52593;42.648;23.332;2023-08-24T04:54:06;94742.41;;;19.49;82.84
65832;BME280;52593;42.648;23.332;2023-08-24T04:56:31;94752.16;;;19.38;83.27
65832;BME280;52593;42.648;23.332;2023-08-24T04:58:58;94751.69;;;19.41;83.78
65832;BME280;52593;42.648;23.332;2023-08-24T05:01:25;94748.19;;;19.40;82.81
65832;BME280;52593;42.648;23.332;2023-08-24T05:03:52;94742.50;;;19.42;83.16
65832;BME280;52593;42.648;23.332;2023-08-24T05:06:18;94742.66;;;19.59;82.50
65832;BME280;52593;42.648;23.332;2023-08-24T05:08:43;94744.22;;;19.78;82.41
65832;BME280;52593;42.648;23.332;2023-08-24T05:13:39;94738.28;;;20.17;79.55
65832;BME280;52593;42.648;23.332;2023-08-24T05:16:04;94736.06;;;20.02;81.51
65832;BME280;52593;42.648;23.332;2023-08-24T05:18:29;94731.91;;;20.11;80.22
65832;BME280;52593;42.648;23.332;2023-08-24T05:20:55;94735.38;;;20.47;78.04
65832;BME280;52593;42.648;23.332;2023-08-24T05:23:20;94742.59;;;20.82;76.24
65832;BME280;52593;42.648;23.332;2023-08-24T05:25:45;94751.13;;;20.86;76.63
65832;BME280;52593;42.648;23.332;2023-08-24T05:28:11;94738.09;;;20.88;76.83
65832;BME280;52593;42.648;23.332;2023-08-24T05:30:36;94742.38;;;21.01;75.76
65832;BME280;52593;42.648;23.332;2023-08-24T05:33:02;94750.50;;;21.13;75.63
65832;BME280;52593;42.648;23.332;2023-08-24T05:35:27;94757.94;;;21.17;75.04
65832;BME280;52593;42.648;23.332;2023-08-24T05:37:52;94759.19;;;21.27;74.19
65832;BME280;52593;42.648;23.332;2023-08-24T05:40:18;94752.00;;;21.20;75.74
65832;BME280;52593;42.648;23.332;2023-08-24T05:42:43;94762.47;;;21.12;76.38
65832;BME280;52593;42.648;23.332;2023-08-24T05:45:09;94759.69;;;20.95;77.16
65832;BME280;52593;42.648;23.332;2023-08-24T05:47:34;94765.72;;;20.68;77.94
65832;BME280;52593;42.648;23.332;2023-08-24T05:50:00;94773.88;;;20.56;79.10
65832;BME280;52593;42.648;23.332;2023-08-24T05:52:25;94774.22;;;20.60;79.26
65832;BME280;52593;42.648;23.332;2023-08-24T05:54:50;94768.25;;;20.87;77.42
65832;BME280;52593;42.648;23.332;2023-08-24T05:57:16;94766.88;;;21.01;77.78
65832;BME280;52593;42.648;23.332;2023-08-24T05:59:41;94769.25;;;21.26;76.44
65832;BME280;52593;42.648;23.332;2023-08-24T06:02:06;94774.50;;;21.16;75.90
65832;BME280;52593;42.648;23.332;2023-08-24T06:04:32;94769.53;;;21.13;75.12
65832;BME280;52593;42.648;23.332;2023-08-24T06:06:57;94767.53;;;20.91;76.37
65832;BME280;52593;42.648;23.332;2023-08-24T06:09:22;94771.00;;;21.32;73.69
65832;BME280;52593;42.648;23.332;2023-08-24T06:11:48;94773.75;;;21.83;71.03
65832;BME280;52593;42.648;23.332;2023-08-24T06:14:13;94760.34;;;22.16;69.97
65832;BME280;52593;42.648;23.332;2023-08-24T06:16:39;94772.63;;;22.35;68.53
65832;BME280;52593;42.648;23.332;2023-08-24T06:19:04;94780.25;;;22.16;69.20
65832;BME280;52593;42.648;23.332;2023-08-24T06:21:29;94775.47;;;21.89;70.24
65832;BME280;52593;42.648;23.332;2023-08-24T06:23:55;94777.91;;;21.69;70.77
65832;BME280;52593;42.648;23.332;2023-08-24T06:26:20;94771.38;;;21.87;70.22
65832;BME280;52593;42.648;23.332;2023-08-24T06:28:45;94775.34;;;21.96;69.79
65832;BME280;52593;42.648;23.332;2023-08-24T06:31:11;94772.91;;;22.17;69.43
65832;BME280;52593;42.648;23.332;2023-08-24T06:33:38;94774.28;;;22.36;69.17
65832;BME280;52593;42.648;23.332;2023-08-24T06:36:04;94776.47;;;22.56;68.35
65832;BME280;52593;42.648;23.332;2023-08-24T06:38:30;94774.88;;;22.60;68.33
65832;BME280;52593;42.648;23.332;2023-08-24T06:40:57;94766.28;;;22.74;68.09
65832;BME280;52593;42.648;23.332;2023-08-24T06:43:22;94768.84;;;22.80;67.54
65832;BME280;52593;42.648;23.332;2023-08-24T06:45:48;94767.25;;;22.85;66.89
65832;BME280;52593;42.648;23.332;2023-08-24T06:48:13;94767.00;;;22.86;65.91
65832;BME280;52593;42.648;23.332;2023-08-24T06:50:38;94765.28;;;23.02;66.76
65832;BME280;52593;42.648;23.332;2023-08-24T06:53:04;94767.03;;;23.13;66.39
65832;BME280;52593;42.648;23.332;2023-08-24T06:55:29;94764.66;;;23.17;65.67
65832;BME280;52593;42.648;23.332;2023-08-24T06:57:55;94767.63;;;23.15;65.24
65832;BME280;52593;42.648;23.332;2023-08-24T07:00:21;94766.78;;;23.15;64.51
65832;BME280;52593;42.648;23.332;2023-08-24T07:02:47;94768.44;;;22.94;63.44
65832;BME280;52593;42.648;23.332;2023-08-24T07:05:13;94764.59;;;22.90;64.74
65832;BME280;52593;42.648;23.332;2023-08-24T07:07:39;94755.69;;;23.00;64.33
65832;BME280;52593;42.648;23.332;2023-08-24T07:10:08;94758.16;;;23.01;64.11
65832;BME280;52593;42.648;23.332;2023-08-24T07:12:34;94762.22;;;23.21;64.28
65832;BME280;52593;42.648;23.332;2023-08-24T07:14:59;94754.22;;;23.41;63.16
65832;BME280;52593;42.648;23.332;2023-08-24T07:17:24;94762.41;;;23.41;62.59
65832;BME280;52593;42.648;23.332;2023-08-24T07:19:50;94750.09;;;23.39;63.57
65832;BME280;52593;42.648;23.332;2023-08-24T07:22:15;94749.75;;;23.62;61.59
65832;BME280;52593;42.648;23.332;2023-08-24T07:24:41;94752.72;;;23.88;60.87
65832;BME280;52593;42.648;23.332;2023-08-24T07:27:07;94751.31;;;23.85;60.95
65832;BME280;52593;42.648;23.332;2023-08-24T07:29:33;94750.44;;;24.12;61.34
65832;BME280;52593;42.648;23.332;2023-08-24T07:31:59;94746.06;;;24.16;59.62
65832;BME280;52593;42.648;23.332;2023-08-24T07:34:24;94749.06;;;24.15;59.99
65832;BME280;52593;42.648;23.332;2023-08-24T07:36:50;94750.44;;;24.17;59.99
65832;BME280;52593;42.648;23.332;2023-08-24T07:39:15;94755.13;;;24.22;59.91
65832;BME280;52593;42.648;23.332;2023-08-24T07:41:41;94748.31;;;24.25;60.93
65832;BME280;52593;42.648;23.332;2023-08-24T07:44:07;94751.06;;;24.30;60.26
65832;BME280;52593;42.648;23.332;2023-08-24T07:46:33;94740.69;;;24.32;60.36
65832;BME280;52593;42.648;23.332;2023-08-24T07:48:58;94752.41;;;24.27;59.90
65832;BME280;52593;42.648;23.332;2023-08-24T07:51:24;94754.84;;;24.18;60.15
65832;BME280;52593;42.648;23.332;2023-08-24T07:53:49;94748.56;;;24.23;59.85
65832;BME280;52593;42.648;23.332;2023-08-24T07:56:17;94748.94;;;24.42;59.54
65832;BME280;52593;42.648;23.332;2023-08-24T07:58:42;94752.84;;;24.56;58.77
65832;BME280;52593;42.648;23.332;2023-08-24T08:01:08;94751.03;;;24.72;58.23
65832;BME280;52593;42.648;23.332;2023-08-24T08:03:34;94745.34;;;24.95;57.19
65832;BME280;52593;42.648;23.332;2023-08-24T08:06:01;94743.75;;;25.04;57.15
65832;BME280;52593;42.648;23.332;2023-08-24T08:08:26;94747.56;;;25.03;56.73
65832;BME280;52593;42.648;23.332;2023-08-24T08:10:59;94749.22;;;25.04;57.25
65832;BME280;52593;42.648;23.332;2023-08-24T08:13:26;94740.75;;;25.10;57.03
65832;BME280;52593;42.648;23.332;2023-08-24T08:15:51;94751.44;;;25.17;56.72
65832;BME280;52593;42.648;23.332;2023-08-24T08:18:16;94744.03;;;25.07;57.52
65832;BME280;52593;42.648;23.332;2023-08-24T08:20:42;94752.03;;;25.30;56.04
65832;BME280;52593;42.648;23.332;2023-08-24T08:23:07;94747.69;;;25.44;54.94
65832;BME280;52593;42.648;23.332;2023-08-24T08:25:32;94742.47;;;25.53;55.11
65832;BME280;52593;42.648;23.332;2023-08-24T08:27:58;94737.28;;;25.72;54.63
65832;BME280;52593;42.648;23.332;2023-08-24T08:30:23;94739.78;;;25.99;53.11
65832;BME280;52593;42.648;23.332;2023-08-24T08:32:49;94735.09;;;26.10;52.92
65832;BME280;52593;42.648;23.332;2023-08-24T08:35:17;94735.06;;;26.20;52.89
65832;BME280;52593;42.648;23.332;2023-08-24T08:37:42;94730.09;;;26.38;50.52
65832;BME280;52593;42.648;23.332;2023-08-24T08:40:10;94730.59;;;26.50;48.92
65832;BME280;52593;42.648;23.332;2023-08-24T08:42:36;94728.34;;;26.62;49.21
65832;BME280;52593;42.648;23.332;2023-08-24T08:45:04;94723.69;;;26.73;49.87
65832;BME280;52593;42.648;23.332;2023-08-24T08:47:33;94719.22;;;26.87;50.88
65832;BME280;52593;42.648;23.332;2023-08-24T08:49:59;94722.44;;;27.05;49.63
65832;BME280;52593;42.648;23.332;2023-08-24T08:52:26;94716.59;;;27.12;50.92
65832;BME280;52593;42.648;23.332;2023-08-24T08:54:52;94710.41;;;27.40;48.08
65832;BME280;52593;42.648;23.332;2023-08-24T08:57:19;94710.78;;;27.63;46.77
65832;BME280;52593;42.648;23.332;2023-08-24T08:59:44;94708.84;;;27.69;48.64
65832;BME280;52593;42.648;23.332;2023-08-24T09:02:13;94703.91;;;27.95;45.65
65832;BME280;52593;42.648;23.332;2023-08-24T09:04:41;94704.72;;;28.01;45.54
65832;BME280;52593;42.648;23.332;2023-08-24T09:07:09;94704.78;;;27.90;45.85
65832;BME280;52593;42.648;23.332;2023-08-24T09:09:38;94699.28;;;27.90;45.74
65832;BME280;52593;42.648;23.332;2023-08-24T09:12:05;94689.47;;;28.14;45.79
65832;BME280;52593;42.648;23.332;2023-08-24T09:14:30;94685.84;;;28.18;47.28
65832;BME280;52593;42.648;23.332;2023-08-24T09:16:56;94697.75;;;28.38;45.80
65832;BME280;52593;42.648;23.332;2023-08-24T09:19:28;94687.88;;;28.61;45.34
65832;BME280;52593;42.648;23.332;2023-08-24T09:21:57;94681.41;;;28.71;45.06
65832;BME280;52593;42.648;23.332;2023-08-24T09:24:33;94673.09;;;28.95;43.95
65832;BME280;52593;42.648;23.332;2023-08-24T09:27:00;94673.59;;;28.97;43.88
65832;BME280;52593;42.648;23.332;2023-08-24T09:29:25;94670.41;;;29.09;42.88
65832;BME280;52593;42.648;23.332;2023-08-24T09:31:51;94669.75;;;28.98;42.95
65832;BME280;52593;42.648;23.332;2023-08-24T09:34:20;94667.97;;;29.07;42.40
65832;BME280;52593;42.648;23.332;2023-08-24T09:36:46;94658.72;;;29.17;42.57
65832;BME280;52593;42.648;23.332;2023-08-24T09:39:12;94653.84;;;29.33;42.24
65832;BME280;52593;42.648;23.332;2023-08-24T09:41:49;94654.78;;;29.42;43.72
65832;BME280;52593;42.648;23.332;2023-08-24T09:44:17;94651.03;;;29.52;43.63
65832;BME280;52593;42.648;23.332;2023-08-24T09:46:43;94648.56;;;29.69;41.01
65832;BME280;52593;42.648;23.332;2023-08-24T09:49:10;94647.50;;;29.98;40.47
65832;BME280;52593;42.648;23.332;2023-08-24T09:51:39;94643.00;;;29.88;39.97
65832;BME280;52593;42.648;23.332;2023-08-24T09:54:07;94651.28;;;29.88;41.20
65832;BME280;52593;42.648;23.332;2023-08-24T09:56:38;94645.06;;;30.11;39.75
65832;BME280;52593;42.648;23.332;2023-08-24T09:59:12;94640.16;;;30.21;41.34
65832;BME280;52593;42.648;23.332;2023-08-24T10:01:51;94643.19;;;29.92;40.65
65832;BME280;52593;42.648;23.332;2023-08-24T10:04:29;94637.63;;;30.25;40.99
65832;BME280;52593;42.648;23.332;2023-08-24T10:07:03;94632.56;;;30.46;38.87
65832;BME280;52593;42.648;23.332;2023-08-24T10:09:45;94624.84;;;30.29;38.67
65832;BME280;52593;42.648;23.332;2023-08-24T10:12:12;94628.56;;;30.52;39.87
65832;BME280;52593;42.648;23.332;2023-08-24T10:14:49;94623.38;;;31.01;38.16
65832;BME280;52593;42.648;23.332;2023-08-24T10:17:19;94620.31;;;31.25;36.79
65832;BME280;52593;42.648;23.332;2023-08-24T10:19:46;94615.56;;;31.40;38.18
65832;BME280;52593;42.648;23.332;2023-08-24T10:22:12;94617.19;;;31.63;38.01
65832;BME280;52593;42.648;23.332;2023-08-24T10:24:37;94618.91;;;31.73;36.41
65832;BME280;52593;42.648;23.332;2023-08-24T10:27:05;94620.09;;;31.81;35.70
65832;BME280;52593;42.648;23.332;2023-08-24T10:29:30;94622.78;;;32.04;35.28
65832;BME280;52593;42.648;23.332;2023-08-24T10:31:56;94622.94;;;31.53;35.58
65832;BME280;52593;42.648;23.332;2023-08-24T10:34:22;94610.13;;;31.35;35.98
65832;BME280;52593;42.648;23.332;2023-08-24T10:36:48;94612.63;;;31.59;35.95
65832;BME280;52593;42.648;23.332;2023-08-24T10:39:14;94607.84;;;31.73;35.53
65832;BME280;52593;42.648;23.332;2023-08-24T10:41:50;94606.50;;;31.71;33.75
65832;BME280;52593;42.648;23.332;2023-08-24T10:44:21;94609.88;;;31.00;34.82
65832;BME280;52593;42.648;23.332;2023-08-24T10:49:38;94608.13;;;30.90;35.96
65832;BME280;52593;42.648;23.332;2023-08-24T10:52:23;94607.94;;;31.00;35.27
65832;BME280;52593;42.648;23.332;2023-08-24T10:54:50;94609.94;;;30.94;34.23
65832;BME280;52593;42.648;23.332;2023-08-24T10:57:23;94601.59;;;30.72;34.79
65832;BME280;52593;42.648;23.332;2023-08-24T11:02:51;94598.81;;;31.00;35.07
65832;BME280;52593;42.648;23.332;2023-08-24T11:07:58;94586.94;;;30.99;36.75
65832;BME280;52593;42.648;23.332;2023-08-24T11:10:33;94599.78;;;30.26;39.33
65832;BME280;52593;42.648;23.332;2023-08-24T11:15:30;94601.47;;;28.76;43.75
65832;BME280;52593;42.648;23.332;2023-08-24T11:20:43;94592.38;;;28.94;43.87
65832;BME280;52593;42.648;23.332;2023-08-24T11:23:09;94582.84;;;29.25;43.55
65832;BME280;52593;42.648;23.332;2023-08-24T11:25:38;94587.91;;;29.37;42.74
65832;BME280;52593;42.648;23.332;2023-08-24T11:28:04;94595.59;;;29.53;42.96
65832;BME280;52593;42.648;23.332;2023-08-24T11:30:31;94588.09;;;29.73;42.56
65832;BME280;52593;42.648;23.332;2023-08-24T11:32:57;94598.38;;;29.86;42.09
65832;BME280;52593;42.648;23.332;2023-08-24T11:35:23;94591.03;;;29.63;41.86
65832;BME280;52593;42.648;23.332;2023-08-24T11:37:56;94600.94;;;29.31;42.09
65832;BME280;52593;42.648;23.332;2023-08-24T11:40:22;94601.69;;;29.17;42.89
65832;BME280;52593;42.648;23.332;2023-08-24T11:42:57;94605.81;;;29.01;43.18
65832;BME280;52593;42.648;23.332;2023-08-24T11:45:23;94600.19;;;29.06;42.69
65832;BME280;52593;42.648;23.332;2023-08-24T11:47:52;94602.25;;;29.00;42.83
65832;BME280;52593;42.648;23.332;2023-08-24T11:50:18;94615.69;;;28.64;44.42
65832;BME280;52593;42.648;23.332;2023-08-24T11:52:44;94615.00;;;28.29;45.49
65832;BME280;52593;42.648;23.332;2023-08-24T11:55:10;94607.56;;;28.05;46.17
65832;BME280;52593;42.648;23.332;2023-08-24T11:57:36;94606.94;;;28.14;46.29
65832;BME280;52593;42.648;23.332;2023-08-24T12:00:03;94603.03;;;28.20;47.06
65832;BME280;52593;42.648;23.332;2023-08-24T12:02:29;94604.22;;;28.33;46.28
65832;BME280;52593;42.648;23.332;2023-08-24T12:04:55;94599.13;;;28.21;47.11
65832;BME280;52593;42.648;23.332;2023-08-24T12:07:21;94597.56;;;27.90;47.65
65832;BME280;52593;42.648;23.332;2023-08-24T12:09:47;94588.34;;;27.76;47.53
65832;BME280;52593;42.648;23.332;2023-08-24T12:12:16;94578.22;;;27.71;47.71
65832;BME280;52593;42.648;23.332;2023-08-24T12:14:43;94572.03;;;27.85;46.84
65832;BME280;52593;42.648;23.332;2023-08-24T12:17:12;94568.56;;;28.03;45.80
65832;BME280;52593;42.648;23.332;2023-08-24T12:19:45;94561.50;;;28.16;43.58
65832;BME280;52593;42.648;23.332;2023-08-24T12:22:21;94571.53;;;28.07;43.98
65832;BME280;52593;42.648;23.332;2023-08-24T12:24:47;94579.84;;;28.02;44.30
65832;BME280;52593;42.648;23.332;2023-08-24T12:27:20;94577.97;;;27.97;43.46
65832;BME280;52593;42.648;23.332;2023-08-24T12:29:46;94583.38;;;28.07;43.21
65832;BME280;52593;42.648;23.332;2023-08-24T12:32:12;94580.47;;;28.18;43.55
65832;BME280;52593;42.648;23.332;2023-08-24T12:34:38;94590.47;;;28.08;43.38
65832;BME280;52593;42.648;23.332;2023-08-24T12:37:03;94585.53;;;28.10;44.29
65832;BME280;52593;42.648;23.332;2023-08-24T12:39:35;94582.63;;;28.21;43.83
65832;BME280;52593;42.648;23.332;2023-08-24T12:42:00;94585.81;;;28.33;43.21
65832;BME280;52593;42.648;23.332;2023-08-24T12:44:26;94574.59;;;28.49;42.92
65832;BME280;52593;42.648;23.332;2023-08-24T12:46:51;94574.72;;;28.38;42.08
65832;BME280;52593;42.648;23.332;2023-08-24T12:49:17;94575.63;;;28.53;41.87
65832;BME280;52593;42.648;23.332;2023-08-24T12:51:42;94581.00;;;28.63;41.60
65832;BME280;52593;42.648;23.332;2023-08-24T12:54:07;94585.13;;;28.66;41.57
65832;BME280;52593;42.648;23.332;2023-08-24T12:56:33;94581.25;;;28.86;41.62
65832;BME280;52593;42.648;23.332;2023-08-24T12:58:58;94582.66;;;29.02;41.29
65832;BME280;52593;42.648;23.332;2023-08-24T13:01:24;94600.66;;;29.13;41.00
65832;BME280;52593;42.648;23.332;2023-08-24T13:03:49;94599.53;;;29.14;42.23
65832;BME280;52593;42.648;23.332;2023-08-24T13:06:15;94598.38;;;29.21;41.81
65832;BME280;52593;42.648;23.332;2023-08-24T13:08:40;94602.41;;;29.42;40.36